Friday, January 30, 2015
18:33 UTC
  |  Log In   |  Register Free
Airport Search:

Alpena County Regional Airport
(KAPN)

FAA data valid effective January 08, 2015 - March 05, 2015 (unless otherwise noted).

 
 
 
 
 
 
 
 
 
 
 
 
 
 

Current Aviation Weather for Alpena County Regional Airport (KAPN)

The most recent METAR observation for KAPN was updated at: 1807
METAR Summary (Translated METAR)
KAPN
301754Z AUTO 32008KT 8SM UP OVC025 M13/M17 A3045 RMK AO2 UPE01B53SNB01E21 SLP329 P0000 60000 T11281172 11128 21150 50004
KPZQ
301754Z AUTO 32007KT 280V350 10SM OVC018 M12/M15 A3046 RMK AO2 T11231152
(22.5 nm NW from KAPN)
KOSC
301753Z AUTO 33010G17KT 10SM SCT029 M11/M17 A3044 RMK AO2 T11111179
(38.3 nm SE from KAPN)
TAF Summary (Translated TAF)
KAPN
301738Z 3018/3118 32009KT P6SM OVC024 FM302000 29007KT P6SM SCT030 FM302300 VRB03KT P6SM BKN028 FM310900 20003KT 5SM -SN OVC040 FM311400 21007KT P6SM OVC080
  Airport Weather Conditions for KAPN

 Current Weather at APN
9° F
Unknown Precip
Northwest winds at 9.2 mph
APN NOAA Radar

Pressure: 30.45 in
Humidity: 70%
Wind: Northwest at 9.2 MPH (8 KT)
Dew Point: 1.0°F
Visibility: 8.00 mi


Airport Weather Forecast for KAPN

Translated METAR and TAF for KAPN
Translated METAR for KAPN (1833 UTC 30 January 2015)
found at http://aviationweather.gov/adds/metars/
 
METAR text: KAPN 301754Z AUTO 32008KT 8SM UP OVC025 M13/M17 A3045 RMK AO2 UPE01B53SNB01E21 SLP329 P0000 60000 T11281172 11128 21150 50004
Conditions at: KAPN (ALPENA , MI, US) observed 1754 UTC 30 January 2015
Temperature: -12.8°C (9°F)
Dewpoint: -17.2°C (1°F) [RH = 70%]
Pressure (altimeter): 30.45 inches Hg (1031.2 mb)
[Sea-level pressure: 1032.9 mb]
Winds: from the NW (320 degrees) at 9 MPH (8 knots; 4.2 m/s)
Visibility: 8 miles (13 km)
Ceiling: 2500 feet AGL
Clouds: overcast cloud deck at 2500 feet AGL
Weather: UP  (unknown precipitation)
Translated TAF for KAPN
Forecast for: KAPN (ALPENA , MI, US)
TAF Text: KAPN 301738Z 3018/3118 32009KT P6SM OVC024
Forecast period: 1800 to 2000 UTC 30 January 2015
Forecast type: FROM: standard forecast or significant change
Winds: from the NW (320 degrees) at 10 MPH (9 knots; 4.7 m/s)
Visibility: 6 or more miles (10+ km)
Ceiling: 2400 feet AGL
Clouds: overcast cloud deck at 2400 feet AGL
Weather: no significant weather forecast for this period
TAF Text: FM302000 29007KT P6SM SCT030
Forecast period: 2000 to 2300 UTC 30 January 2015
Forecast type: FROM: standard forecast or significant change
Winds: from the WNW (290 degrees) at 8 MPH (7 knots; 3.6 m/s)
Visibility: 6 or more miles (10+ km)
Clouds: scattered clouds at 3000 feet AGL
Weather: no significant weather forecast for this period
TAF Text: FM302300 VRB03KT P6SM BKN028
Forecast period: 2300 UTC 30 January 2015 to 0900 UTC 31 January 2015
Forecast type: FROM: standard forecast or significant change
Winds: variable direction winds at 3 MPH (3 knots; 1.6 m/s)
Visibility: 6 or more miles (10+ km)
Ceiling: 2800 feet AGL
Clouds: broken clouds at 2800 feet AGL
Weather: no significant weather forecast for this period
TAF Text: FM310900 20003KT 5SM -SN OVC040
Forecast period: 0900 to 1400 UTC 31 January 2015
Forecast type: FROM: standard forecast or significant change
Winds: from the SSW (200 degrees) at 3 MPH (3 knots; 1.6 m/s)
Visibility: 5 miles (8 km)
Ceiling: 4000 feet AGL
Clouds: overcast cloud deck at 4000 feet AGL
Weather: -SN  (light snow)
TAF Text: FM311400 21007KT P6SM OVC080
Forecast period: 1400 to 1800 UTC 31 January 2015
Forecast type: FROM: standard forecast or significant change
Winds: from the SSW (210 degrees) at 8 MPH (7 knots; 3.6 m/s)
Visibility: 6 or more miles (10+ km)
Ceiling: 8000 feet AGL
Clouds: overcast cloud deck at 8000 feet AGL
Weather: no significant weather forecast for this period

Find All Airport Services Find A Hotel Find A Rental Car Find A Golf Course Find A Restaurant $100 Hamburger



FBO's on the Field
FBO Company Facility Photos Services Transportation Aviation Fuel Prices: Prices include tax
Catering Weather Repair Courtesy Rental Type 100LL JetA JetA+ MOGAS 8087
 
Aviation Express Inc.

Currently rated 1.2 by 1 person
FS:Shell
Last Updated: Jan-28
Login to update fuel prices
SS:
Contact Aviation Express Inc.More FBO Information
 
Aviation North

This FBO has not yet been rated
FS:Avfuel
Last Updated: Jan-12
Login to update fuel prices
SS:
Contact Aviation NorthMore FBO Information
 
Add another FBO Facility Photos Catering Weather Repair Courtesy Rental Type 100LL JetA JetA+ MOGAS 8087
Services Transportation Aviation Fuel Prices: Prices include tax


model-print
model-print
model-print
model-print